sensor_id;sensor_type;location;lat;lon;timestamp;P1;durP1;ratioP1;P2;durP2;ratioP2
11535;SDS011;5824;49.336;8.652;2023-03-23T00:02:19;2.87;;;2.20;;
11535;SDS011;5824;49.336;8.652;2023-03-23T00:04:48;2.53;;;2.23;;
11535;SDS011;5824;49.336;8.652;2023-03-23T00:07:14;4.97;;;2.13;;
11535;SDS011;5824;49.336;8.652;2023-03-23T00:09:45;5.03;;;2.17;;
11535;SDS011;5824;49.336;8.652;2023-03-23T00:12:12;3.90;;;2.17;;
11535;SDS011;5824;49.336;8.652;2023-03-23T00:14:40;2.70;;;2.23;;
11535;SDS011;5824;49.336;8.652;2023-03-23T00:17:09;2.00;;;1.80;;
11535;SDS011;5824;49.336;8.652;2023-03-23T00:19:36;2.80;;;2.03;;
11535;SDS011;5824;49.336;8.652;2023-03-23T00:22:10;2.53;;;1.93;;
11535;SDS011;5824;49.336;8.652;2023-03-23T00:24:37;4.27;;;2.13;;
11535;SDS011;5824;49.336;8.652;2023-03-23T00:27:02;3.53;;;1.90;;
11535;SDS011;5824;49.336;8.652;2023-03-23T00:29:28;2.50;;;1.90;;
11535;SDS011;5824;49.336;8.652;2023-03-23T00:31:54;5.70;;;1.70;;
11535;SDS011;5824;49.336;8.652;2023-03-23T00:34:22;3.23;;;1.70;;
11535;SDS011;5824;49.336;8.652;2023-03-23T00:36:50;2.63;;;2.00;;
11535;SDS011;5824;49.336;8.652;2023-03-23T00:39:18;2.20;;;1.67;;
11535;SDS011;5824;49.336;8.652;2023-03-23T00:41:44;5.20;;;1.83;;
11535;SDS011;5824;49.336;8.652;2023-03-23T00:44:10;3.60;;;1.90;;
11535;SDS011;5824;49.336;8.652;2023-03-23T00:46:42;3.80;;;2.23;;
11535;SDS011;5824;49.336;8.652;2023-03-23T00:49:13;4.30;;;2.10;;
11535;SDS011;5824;49.336;8.652;2023-03-23T00:51:41;2.70;;;1.90;;
11535;SDS011;5824;49.336;8.652;2023-03-23T00:54:07;2.57;;;2.10;;
11535;SDS011;5824;49.336;8.652;2023-03-23T00:56:32;2.73;;;1.80;;
11535;SDS011;5824;49.336;8.652;2023-03-23T00:58:58;2.57;;;1.70;;
11535;SDS011;5824;49.336;8.652;2023-03-23T01:01:24;2.10;;;1.60;;
11535;SDS011;5824;49.336;8.652;2023-03-23T01:03:49;3.23;;;2.10;;
11535;SDS011;5824;49.336;8.652;2023-03-23T01:06:15;2.40;;;1.97;;
11535;SDS011;5824;49.336;8.652;2023-03-23T01:08:41;2.53;;;1.60;;
11535;SDS011;5824;49.336;8.652;2023-03-23T01:11:10;2.07;;;1.77;;
11535;SDS011;5824;49.336;8.652;2023-03-23T01:13:41;2.13;;;1.90;;
11535;SDS011;5824;49.336;8.652;2023-03-23T01:16:08;2.40;;;1.80;;
11535;SDS011;5824;49.336;8.652;2023-03-23T01:18:35;5.10;;;2.10;;
11535;SDS011;5824;49.336;8.652;2023-03-23T01:21:07;2.40;;;1.90;;
11535;SDS011;5824;49.336;8.652;2023-03-23T01:23:35;9.60;;;2.30;;
11535;SDS011;5824;49.336;8.652;2023-03-23T01:26:09;2.73;;;2.10;;
11535;SDS011;5824;49.336;8.652;2023-03-23T01:31:58;3.43;;;2.60;;
11535;SDS011;5824;49.336;8.652;2023-03-23T01:34:23;2.83;;;2.00;;
11535;SDS011;5824;49.336;8.652;2023-03-23T01:36:49;1.90;;;1.67;;
11535;SDS011;5824;49.336;8.652;2023-03-23T01:39:15;3.00;;;2.20;;
11535;SDS011;5824;49.336;8.652;2023-03-23T01:41:40;3.10;;;2.10;;
11535;SDS011;5824;49.336;8.652;2023-03-23T01:46:40;4.57;;;2.27;;
11535;SDS011;5824;49.336;8.652;2023-03-23T01:49:07;2.93;;;1.80;;
11535;SDS011;5824;49.336;8.652;2023-03-23T01:51:46;2.20;;;2.00;;
11535;SDS011;5824;49.336;8.652;2023-03-23T01:54:14;2.93;;;2.00;;
11535;SDS011;5824;49.336;8.652;2023-03-23T01:56:46;4.77;;;2.40;;
11535;SDS011;5824;49.336;8.652;2023-03-23T01:59:15;3.90;;;2.67;;
11535;SDS011;5824;49.336;8.652;2023-03-23T02:01:41;2.83;;;2.23;;
11535;SDS011;5824;49.336;8.652;2023-03-23T02:04:09;3.13;;;2.17;;
11535;SDS011;5824;49.336;8.652;2023-03-23T02:06:38;5.03;;;2.50;;
11535;SDS011;5824;49.336;8.652;2023-03-23T02:09:03;3.50;;;2.43;;
11535;SDS011;5824;49.336;8.652;2023-03-23T02:11:31;4.57;;;3.03;;
11535;SDS011;5824;49.336;8.652;2023-03-23T02:13:57;4.33;;;2.33;;
11535;SDS011;5824;49.336;8.652;2023-03-23T02:16:32;3.80;;;2.47;;
11535;SDS011;5824;49.336;8.652;2023-03-23T02:19:07;4.80;;;2.30;;
11535;SDS011;5824;49.336;8.652;2023-03-23T02:30:52;2.80;;;2.00;;
11535;SDS011;5824;49.336;8.652;2023-03-23T02:36:37;3.33;;;1.80;;
11535;SDS011;5824;49.336;8.652;2023-03-23T02:41:46;6.50;;;2.20;;
11535;SDS011;5824;49.336;8.652;2023-03-23T02:44:16;2.50;;;2.10;;
11535;SDS011;5824;49.336;8.652;2023-03-23T02:46:42;2.17;;;1.77;;
11535;SDS011;5824;49.336;8.652;2023-03-23T02:49:10;3.07;;;1.90;;
11535;SDS011;5824;49.336;8.652;2023-03-23T02:51:38;2.03;;;1.70;;
11535;SDS011;5824;49.336;8.652;2023-03-23T02:54:05;2.17;;;1.80;;
11535;SDS011;5824;49.336;8.652;2023-03-23T02:56:32;3.43;;;2.23;;
11535;SDS011;5824;49.336;8.652;2023-03-23T02:58:59;6.03;;;2.07;;
11535;SDS011;5824;49.336;8.652;2023-03-23T03:03:50;3.23;;;2.00;;
11535;SDS011;5824;49.336;8.652;2023-03-23T03:08:57;3.37;;;2.30;;
11535;SDS011;5824;49.336;8.652;2023-03-23T03:11:28;3.87;;;2.03;;
11535;SDS011;5824;49.336;8.652;2023-03-23T03:14:00;2.60;;;1.80;;
11535;SDS011;5824;49.336;8.652;2023-03-23T03:16:35;2.53;;;1.87;;
11535;SDS011;5824;49.336;8.652;2023-03-23T03:21:38;5.37;;;2.50;;
11535;SDS011;5824;49.336;8.652;2023-03-23T03:24:07;3.60;;;2.50;;
11535;SDS011;5824;49.336;8.652;2023-03-23T03:26:36;3.40;;;2.27;;
11535;SDS011;5824;49.336;8.652;2023-03-23T03:29:12;6.00;;;2.50;;
11535;SDS011;5824;49.336;8.652;2023-03-23T03:31:43;4.93;;;2.60;;
11535;SDS011;5824;49.336;8.652;2023-03-23T03:34:10;3.20;;;2.10;;
11535;SDS011;5824;49.336;8.652;2023-03-23T03:36:36;4.83;;;2.57;;
11535;SDS011;5824;49.336;8.652;2023-03-23T03:39:04;4.27;;;2.40;;
11535;SDS011;5824;49.336;8.652;2023-03-23T03:41:32;3.20;;;1.70;;
11535;SDS011;5824;49.336;8.652;2023-03-23T03:43:59;3.83;;;2.27;;
11535;SDS011;5824;49.336;8.652;2023-03-23T03:46:25;2.57;;;1.90;;
11535;SDS011;5824;49.336;8.652;2023-03-23T03:48:52;2.07;;;1.80;;
11535;SDS011;5824;49.336;8.652;2023-03-23T03:51:18;2.57;;;1.90;;
11535;SDS011;5824;49.336;8.652;2023-03-23T03:53:44;1.90;;;1.70;;
11535;SDS011;5824;49.336;8.652;2023-03-23T03:56:10;3.67;;;2.10;;
11535;SDS011;5824;49.336;8.652;2023-03-23T03:58:36;2.57;;;1.97;;
11535;SDS011;5824;49.336;8.652;2023-03-23T04:01:02;2.87;;;2.00;;
11535;SDS011;5824;49.336;8.652;2023-03-23T04:03:28;3.83;;;2.10;;
11535;SDS011;5824;49.336;8.652;2023-03-23T04:05:54;2.23;;;1.90;;
11535;SDS011;5824;49.336;8.652;2023-03-23T04:08:21;2.80;;;1.90;;
11535;SDS011;5824;49.336;8.652;2023-03-23T04:10:51;2.10;;;1.80;;
11535;SDS011;5824;49.336;8.652;2023-03-23T04:13:17;4.10;;;2.30;;
11535;SDS011;5824;49.336;8.652;2023-03-23T04:15:43;3.30;;;2.00;;
11535;SDS011;5824;49.336;8.652;2023-03-23T04:18:10;2.40;;;2.10;;
11535;SDS011;5824;49.336;8.652;2023-03-23T04:20:36;3.20;;;2.20;;
11535;SDS011;5824;49.336;8.652;2023-03-23T04:23:02;2.50;;;2.13;;
11535;SDS011;5824;49.336;8.652;2023-03-23T04:25:28;3.00;;;2.70;;
11535;SDS011;5824;49.336;8.652;2023-03-23T04:27:57;3.03;;;2.20;;
11535;SDS011;5824;49.336;8.652;2023-03-23T04:30:25;2.30;;;2.07;;
11535;SDS011;5824;49.336;8.652;2023-03-23T04:32:52;7.63;;;2.70;;
11535;SDS011;5824;49.336;8.652;2023-03-23T04:35:21;4.23;;;2.60;;
11535;SDS011;5824;49.336;8.652;2023-03-23T04:37:49;2.67;;;2.23;;
11535;SDS011;5824;49.336;8.652;2023-03-23T04:40:15;3.97;;;2.27;;
11535;SDS011;5824;49.336;8.652;2023-03-23T04:42:42;5.20;;;2.30;;
11535;SDS011;5824;49.336;8.652;2023-03-23T04:45:11;4.80;;;3.00;;
11535;SDS011;5824;49.336;8.652;2023-03-23T04:47:39;3.13;;;2.20;;
11535;SDS011;5824;49.336;8.652;2023-03-23T04:50:09;3.33;;;2.43;;
11535;SDS011;5824;49.336;8.652;2023-03-23T04:52:37;2.40;;;2.17;;
11535;SDS011;5824;49.336;8.652;2023-03-23T04:55:05;4.27;;;2.90;;
11535;SDS011;5824;49.336;8.652;2023-03-23T04:57:31;4.50;;;3.30;;
11535;SDS011;5824;49.336;8.652;2023-03-23T04:59:57;5.17;;;2.40;;
11535;SDS011;5824;49.336;8.652;2023-03-23T05:02:23;4.60;;;2.20;;
11535;SDS011;5824;49.336;8.652;2023-03-23T05:04:50;3.10;;;2.67;;
11535;SDS011;5824;49.336;8.652;2023-03-23T05:07:16;4.50;;;2.37;;
11535;SDS011;5824;49.336;8.652;2023-03-23T05:09:41;3.10;;;2.43;;
11535;SDS011;5824;49.336;8.652;2023-03-23T05:12:12;4.40;;;2.80;;
11535;SDS011;5824;49.336;8.652;2023-03-23T05:14:40;3.27;;;2.60;;
11535;SDS011;5824;49.336;8.652;2023-03-23T05:17:06;2.50;;;2.20;;
11535;SDS011;5824;49.336;8.652;2023-03-23T05:19:32;3.03;;;2.53;;
11535;SDS011;5824;49.336;8.652;2023-03-23T05:21:58;2.93;;;2.63;;
11535;SDS011;5824;49.336;8.652;2023-03-23T05:24:31;5.17;;;2.50;;
11535;SDS011;5824;49.336;8.652;2023-03-23T05:26:57;3.30;;;2.67;;
11535;SDS011;5824;49.336;8.652;2023-03-23T05:29:23;3.27;;;2.23;;
11535;SDS011;5824;49.336;8.652;2023-03-23T05:31:50;4.37;;;2.57;;
11535;SDS011;5824;49.336;8.652;2023-03-23T05:34:17;4.37;;;2.30;;
11535;SDS011;5824;49.336;8.652;2023-03-23T05:36:43;4.70;;;2.43;;
11535;SDS011;5824;49.336;8.652;2023-03-23T05:39:10;3.97;;;2.40;;
11535;SDS011;5824;49.336;8.652;2023-03-23T05:41:36;4.00;;;2.57;;
11535;SDS011;5824;49.336;8.652;2023-03-23T05:44:03;2.90;;;2.30;;
11535;SDS011;5824;49.336;8.652;2023-03-23T05:46:29;6.23;;;2.07;;
11535;SDS011;5824;49.336;8.652;2023-03-23T05:48:54;5.93;;;2.27;;
11535;SDS011;5824;49.336;8.652;2023-03-23T05:51:20;2.47;;;2.00;;
11535;SDS011;5824;49.336;8.652;2023-03-23T05:53:45;2.70;;;2.03;;
11535;SDS011;5824;49.336;8.652;2023-03-23T05:56:12;2.70;;;1.80;;
11535;SDS011;5824;49.336;8.652;2023-03-23T05:58:38;2.87;;;1.90;;
11535;SDS011;5824;49.336;8.652;2023-03-23T06:01:06;2.13;;;1.90;;
11535;SDS011;5824;49.336;8.652;2023-03-23T06:03:32;2.60;;;1.57;;
11535;SDS011;5824;49.336;8.652;2023-03-23T06:06:00;2.40;;;1.90;;
11535;SDS011;5824;49.336;8.652;2023-03-23T06:08:27;2.17;;;1.63;;
11535;SDS011;5824;49.336;8.652;2023-03-23T06:10:53;1.90;;;1.70;;
11535;SDS011;5824;49.336;8.652;2023-03-23T06:13:18;2.43;;;1.70;;
11535;SDS011;5824;49.336;8.652;2023-03-23T06:15:44;3.13;;;1.77;;
11535;SDS011;5824;49.336;8.652;2023-03-23T06:18:10;4.57;;;2.10;;
11535;SDS011;5824;49.336;8.652;2023-03-23T06:20:37;2.00;;;1.67;;
11535;SDS011;5824;49.336;8.652;2023-03-23T06:23:04;3.77;;;2.33;;
11535;SDS011;5824;49.336;8.652;2023-03-23T06:25:29;3.40;;;2.00;;
11535;SDS011;5824;49.336;8.652;2023-03-23T06:27:55;3.40;;;1.80;;
11535;SDS011;5824;49.336;8.652;2023-03-23T06:30:21;2.00;;;1.77;;
11535;SDS011;5824;49.336;8.652;2023-03-23T06:32:46;3.00;;;1.80;;
11535;SDS011;5824;49.336;8.652;2023-03-23T06:35:13;3.93;;;1.90;;
11535;SDS011;5824;49.336;8.652;2023-03-23T06:37:40;2.17;;;1.90;;
11535;SDS011;5824;49.336;8.652;2023-03-23T06:40:06;2.57;;;1.80;;
11535;SDS011;5824;49.336;8.652;2023-03-23T06:42:33;2.67;;;1.70;;
11535;SDS011;5824;49.336;8.652;2023-03-23T06:44:59;2.17;;;1.80;;
11535;SDS011;5824;49.336;8.652;2023-03-23T06:47:26;3.13;;;1.80;;
11535;SDS011;5824;49.336;8.652;2023-03-23T06:49:54;2.40;;;2.07;;
11535;SDS011;5824;49.336;8.652;2023-03-23T06:52:20;2.10;;;1.90;;
11535;SDS011;5824;49.336;8.652;2023-03-23T06:54:47;2.57;;;1.80;;
11535;SDS011;5824;49.336;8.652;2023-03-23T06:57:13;2.20;;;2.00;;
11535;SDS011;5824;49.336;8.652;2023-03-23T06:59:39;2.70;;;1.63;;
11535;SDS011;5824;49.336;8.652;2023-03-23T07:02:06;1.97;;;1.80;;
11535;SDS011;5824;49.336;8.652;2023-03-23T07:04:34;4.03;;;1.90;;
11535;SDS011;5824;49.336;8.652;2023-03-23T07:07:00;2.60;;;1.90;;
11535;SDS011;5824;49.336;8.652;2023-03-23T07:09:26;2.40;;;1.63;;
11535;SDS011;5824;49.336;8.652;2023-03-23T07:11:52;3.37;;;2.00;;
11535;SDS011;5824;49.336;8.652;2023-03-23T07:14:18;2.83;;;1.70;;
11535;SDS011;5824;49.336;8.652;2023-03-23T07:16:43;3.37;;;1.90;;
11535;SDS011;5824;49.336;8.652;2023-03-23T07:19:09;2.00;;;1.80;;
11535;SDS011;5824;49.336;8.652;2023-03-23T07:21:34;3.40;;;1.70;;
11535;SDS011;5824;49.336;8.652;2023-03-23T07:24:00;2.20;;;1.87;;
11535;SDS011;5824;49.336;8.652;2023-03-23T07:26:26;2.83;;;2.10;;
11535;SDS011;5824;49.336;8.652;2023-03-23T07:28:51;2.83;;;1.87;;
11535;SDS011;5824;49.336;8.652;2023-03-23T07:31:17;3.50;;;1.77;;
11535;SDS011;5824;49.336;8.652;2023-03-23T07:33:42;1.80;;;1.60;;
11535;SDS011;5824;49.336;8.652;2023-03-23T07:36:08;2.27;;;1.70;;
11535;SDS011;5824;49.336;8.652;2023-03-23T07:38:34;3.97;;;1.93;;
11535;SDS011;5824;49.336;8.652;2023-03-23T07:41:00;3.53;;;1.80;;
11535;SDS011;5824;49.336;8.652;2023-03-23T07:43:26;1.70;;;1.53;;
11535;SDS011;5824;49.336;8.652;2023-03-23T07:45:52;1.87;;;1.60;;
11535;SDS011;5824;49.336;8.652;2023-03-23T07:48:18;2.70;;;1.90;;
11535;SDS011;5824;49.336;8.652;2023-03-23T07:50:44;2.67;;;1.60;;
11535;SDS011;5824;49.336;8.652;2023-03-23T07:53:09;5.67;;;1.53;;
11535;SDS011;5824;49.336;8.652;2023-03-23T07:55:35;1.53;;;1.43;;
11535;SDS011;5824;49.336;8.652;2023-03-23T07:58:02;1.50;;;1.40;;
11535;SDS011;5824;49.336;8.652;2023-03-23T08:00:28;3.03;;;1.90;;
11535;SDS011;5824;49.336;8.652;2023-03-23T08:02:55;2.00;;;1.67;;
11535;SDS011;5824;49.336;8.652;2023-03-23T08:05:22;2.40;;;1.70;;
11535;SDS011;5824;49.336;8.652;2023-03-23T08:07:50;2.90;;;1.67;;
11535;SDS011;5824;49.336;8.652;2023-03-23T08:10:18;3.20;;;1.47;;
11535;SDS011;5824;49.336;8.652;2023-03-23T08:12:46;2.30;;;1.60;;
11535;SDS011;5824;49.336;8.652;2023-03-23T08:15:16;1.93;;;1.67;;
11535;SDS011;5824;49.336;8.652;2023-03-23T08:17:42;3.63;;;1.60;;
11535;SDS011;5824;49.336;8.652;2023-03-23T08:20:09;3.93;;;1.60;;
11535;SDS011;5824;49.336;8.652;2023-03-23T08:22:41;3.43;;;1.60;;
11535;SDS011;5824;49.336;8.652;2023-03-23T08:25:10;3.17;;;1.80;;
11535;SDS011;5824;49.336;8.652;2023-03-23T08:27:37;2.50;;;1.60;;
11535;SDS011;5824;49.336;8.652;2023-03-23T08:30:07;2.17;;;1.70;;
11535;SDS011;5824;49.336;8.652;2023-03-23T08:32:33;2.40;;;1.90;;
11535;SDS011;5824;49.336;8.652;2023-03-23T08:34:59;4.13;;;2.23;;
11535;SDS011;5824;49.336;8.652;2023-03-23T08:37:25;3.60;;;1.70;;
11535;SDS011;5824;49.336;8.652;2023-03-23T08:39:53;3.30;;;1.90;;
11535;SDS011;5824;49.336;8.652;2023-03-23T08:42:19;2.53;;;1.87;;
11535;SDS011;5824;49.336;8.652;2023-03-23T08:44:45;1.83;;;1.63;;
11535;SDS011;5824;49.336;8.652;2023-03-23T08:47:11;3.73;;;1.97;;
11535;SDS011;5824;49.336;8.652;2023-03-23T08:49:36;2.93;;;1.60;;
11535;SDS011;5824;49.336;8.652;2023-03-23T08:52:02;3.87;;;1.90;;
11535;SDS011;5824;49.336;8.652;2023-03-23T08:54:28;2.53;;;1.90;;
11535;SDS011;5824;49.336;8.652;2023-03-23T08:56:55;3.20;;;2.00;;
11535;SDS011;5824;49.336;8.652;2023-03-23T08:59:23;3.03;;;1.80;;
11535;SDS011;5824;49.336;8.652;2023-03-23T09:01:50;3.40;;;2.33;;
11535;SDS011;5824;49.336;8.652;2023-03-23T09:04:15;2.30;;;2.03;;
11535;SDS011;5824;49.336;8.652;2023-03-23T09:06:41;3.63;;;2.03;;
11535;SDS011;5824;49.336;8.652;2023-03-23T09:09:07;3.30;;;2.00;;
11535;SDS011;5824;49.336;8.652;2023-03-23T09:11:34;4.40;;;1.97;;
11535;SDS011;5824;49.336;8.652;2023-03-23T09:14:02;2.27;;;1.90;;
11535;SDS011;5824;49.336;8.652;2023-03-23T09:16:29;3.00;;;2.40;;
11535;SDS011;5824;49.336;8.652;2023-03-23T09:18:55;4.13;;;2.30;;
11535;SDS011;5824;49.336;8.652;2023-03-23T09:21:22;3.03;;;1.90;;
11535;SDS011;5824;49.336;8.652;2023-03-23T09:23:48;3.00;;;2.20;;
11535;SDS011;5824;49.336;8.652;2023-03-23T09:26:13;2.33;;;2.07;;
11535;SDS011;5824;49.336;8.652;2023-03-23T09:28:40;3.27;;;2.10;;
11535;SDS011;5824;49.336;8.652;2023-03-23T09:31:05;2.13;;;1.83;;
11535;SDS011;5824;49.336;8.652;2023-03-23T09:33:31;2.63;;;2.03;;
11535;SDS011;5824;49.336;8.652;2023-03-23T09:36:00;4.23;;;2.37;;
11535;SDS011;5824;49.336;8.652;2023-03-23T09:38:27;3.47;;;2.30;;
11535;SDS011;5824;49.336;8.652;2023-03-23T09:46:21;4.37;;;2.13;;
11535;SDS011;5824;49.336;8.652;2023-03-23T09:51:50;5.23;;;2.33;;
11535;SDS011;5824;49.336;8.652;2023-03-23T09:54:21;5.53;;;2.43;;
11535;SDS011;5824;49.336;8.652;2023-03-23T09:56:51;3.50;;;2.50;;
11535;SDS011;5824;49.336;8.652;2023-03-23T10:02:18;2.47;;;2.10;;
11535;SDS011;5824;49.336;8.652;2023-03-23T10:04:52;4.00;;;2.30;;
11535;SDS011;5824;49.336;8.652;2023-03-23T10:07:26;3.17;;;2.20;;
11535;SDS011;5824;49.336;8.652;2023-03-23T10:09:54;2.60;;;1.87;;
11535;SDS011;5824;49.336;8.652;2023-03-23T10:14:57;2.93;;;2.00;;
11535;SDS011;5824;49.336;8.652;2023-03-23T10:17:45;2.90;;;2.07;;
11535;SDS011;5824;49.336;8.652;2023-03-23T10:25:51;2.53;;;2.07;;
11535;SDS011;5824;49.336;8.652;2023-03-23T10:28:35;2.63;;;2.07;;
11535;SDS011;5824;49.336;8.652;2023-03-23T10:31:02;2.57;;;2.20;;
11535;SDS011;5824;49.336;8.652;2023-03-23T10:33:37;2.20;;;1.90;;
11535;SDS011;5824;49.336;8.652;2023-03-23T10:36:25;2.43;;;2.10;;
11535;SDS011;5824;49.336;8.652;2023-03-23T10:41:39;3.53;;;1.87;;
11535;SDS011;5824;49.336;8.652;2023-03-23T10:44:14;2.57;;;1.70;;
11535;SDS011;5824;49.336;8.652;2023-03-23T10:46:44;2.30;;;1.73;;
11535;SDS011;5824;49.336;8.652;2023-03-23T10:49:15;2.60;;;1.90;;
11535;SDS011;5824;49.336;8.652;2023-03-23T10:51:57;1.80;;;1.60;;
11535;SDS011;5824;49.336;8.652;2023-03-23T10:54:35;4.07;;;2.37;;
11535;SDS011;5824;49.336;8.652;2023-03-23T10:57:12;3.23;;;1.60;;
11535;SDS011;5824;49.336;8.652;2023-03-23T11:02:35;7.47;;;2.20;;
11535;SDS011;5824;49.336;8.652;2023-03-23T11:05:21;3.80;;;2.03;;
11535;SDS011;5824;49.336;8.652;2023-03-23T11:07:55;2.20;;;1.57;;
11535;SDS011;5824;49.336;8.652;2023-03-23T11:10:34;1.83;;;1.67;;
11535;SDS011;5824;49.336;8.652;2023-03-23T11:13:01;2.37;;;1.70;;
11535;SDS011;5824;49.336;8.652;2023-03-23T11:15:33;3.00;;;1.93;;
11535;SDS011;5824;49.336;8.652;2023-03-23T11:18:03;2.80;;;1.87;;
11535;SDS011;5824;49.336;8.652;2023-03-23T11:20:34;2.60;;;1.70;;
11535;SDS011;5824;49.336;8.652;2023-03-23T11:23:20;3.60;;;1.83;;
11535;SDS011;5824;49.336;8.652;2023-03-23T11:25:52;6.93;;;2.47;;
11535;SDS011;5824;49.336;8.652;2023-03-23T11:28:21;3.10;;;1.80;;
11535;SDS011;5824;49.336;8.652;2023-03-23T11:30:52;2.10;;;1.70;;
11535;SDS011;5824;49.336;8.652;2023-03-23T11:33:19;2.00;;;1.80;;
11535;SDS011;5824;49.336;8.652;2023-03-23T11:35:45;2.10;;;1.63;;
11535;SDS011;5824;49.336;8.652;2023-03-23T11:38:15;2.10;;;1.90;;
11535;SDS011;5824;49.336;8.652;2023-03-23T11:40:47;2.63;;;2.00;;
11535;SDS011;5824;49.336;8.652;2023-03-23T11:43:14;2.13;;;1.90;;
11535;SDS011;5824;49.336;8.652;2023-03-23T11:45:58;3.70;;;2.17;;
11535;SDS011;5824;49.336;8.652;2023-03-23T11:49:13;2.80;;;1.93;;
11535;SDS011;5824;49.336;8.652;2023-03-23T11:51:38;5.80;;;2.30;;
11535;SDS011;5824;49.336;8.652;2023-03-23T11:54:15;7.00;;;2.10;;
11535;SDS011;5824;49.336;8.652;2023-03-23T11:56:56;2.63;;;2.00;;
11535;SDS011;5824;49.336;8.652;2023-03-23T11:59:29;2.93;;;1.90;;
11535;SDS011;5824;49.336;8.652;2023-03-23T12:10:22;3.37;;;2.00;;
11535;SDS011;5824;49.336;8.652;2023-03-23T12:15:49;2.20;;;1.80;;
11535;SDS011;5824;49.336;8.652;2023-03-23T12:21:42;2.60;;;1.80;;
11535;SDS011;5824;49.336;8.652;2023-03-23T12:32:47;2.10;;;1.77;;
11535;SDS011;5824;49.336;8.652;2023-03-23T12:35:34;1.90;;;1.70;;
11535;SDS011;5824;49.336;8.652;2023-03-23T12:38:16;2.83;;;1.90;;
11535;SDS011;5824;49.336;8.652;2023-03-23T12:43:52;2.20;;;1.90;;
11535;SDS011;5824;49.336;8.652;2023-03-23T12:49:06;1.80;;;1.70;;
11535;SDS011;5824;49.336;8.652;2023-03-23T12:52:01;3.47;;;2.57;;
11535;SDS011;5824;49.336;8.652;2023-03-23T12:55:02;5.90;;;1.97;;
11535;SDS011;5824;49.336;8.652;2023-03-23T13:00:27;2.40;;;1.80;;
11535;SDS011;5824;49.336;8.652;2023-03-23T13:03:02;2.90;;;2.20;;
11535;SDS011;5824;49.336;8.652;2023-03-23T13:05:44;2.67;;;2.00;;
11535;SDS011;5824;49.336;8.652;2023-03-23T13:08:21;2.40;;;1.97;;
11535;SDS011;5824;49.336;8.652;2023-03-23T13:10:54;3.40;;;1.93;;
11535;SDS011;5824;49.336;8.652;2023-03-23T13:13:27;2.57;;;1.90;;
11535;SDS011;5824;49.336;8.652;2023-03-23T13:18:50;2.10;;;1.70;;
11535;SDS011;5824;49.336;8.652;2023-03-23T13:21:42;1.73;;;1.63;;
11535;SDS011;5824;49.336;8.652;2023-03-23T13:24:17;2.00;;;1.70;;
11535;SDS011;5824;49.336;8.652;2023-03-23T13:26:46;1.90;;;1.70;;
11535;SDS011;5824;49.336;8.652;2023-03-23T13:29:17;3.20;;;2.27;;
11535;SDS011;5824;49.336;8.652;2023-03-23T13:31:44;2.83;;;1.90;;
11535;SDS011;5824;49.336;8.652;2023-03-23T13:34:30;2.00;;;1.80;;
11535;SDS011;5824;49.336;8.652;2023-03-23T13:37:01;1.73;;;1.57;;
11535;SDS011;5824;49.336;8.652;2023-03-23T13:39:37;3.37;;;2.20;;
11535;SDS011;5824;49.336;8.652;2023-03-23T13:42:24;3.30;;;1.70;;
11535;SDS011;5824;49.336;8.652;2023-03-23T13:44:55;2.30;;;1.80;;
11535;SDS011;5824;49.336;8.652;2023-03-23T13:47:35;1.83;;;1.60;;
11535;SDS011;5824;49.336;8.652;2023-03-23T14:03:15;5.10;;;1.93;;
11535;SDS011;5824;49.336;8.652;2023-03-23T14:06:05;7.87;;;4.37;;
11535;SDS011;5824;49.336;8.652;2023-03-23T14:08:38;16.13;;;7.20;;
11535;SDS011;5824;49.336;8.652;2023-03-23T14:11:25;10.30;;;4.20;;
11535;SDS011;5824;49.336;8.652;2023-03-23T14:19:15;4.63;;;2.00;;
11535;SDS011;5824;49.336;8.652;2023-03-23T14:22:00;2.57;;;2.10;;
11535;SDS011;5824;49.336;8.652;2023-03-23T14:24:27;2.50;;;1.90;;
11535;SDS011;5824;49.336;8.652;2023-03-23T14:29:35;2.13;;;1.80;;
11535;SDS011;5824;49.336;8.652;2023-03-23T14:32:01;2.30;;;1.90;;
11535;SDS011;5824;49.336;8.652;2023-03-23T14:34:29;4.37;;;2.30;;
11535;SDS011;5824;49.336;8.652;2023-03-23T14:36:57;2.00;;;1.80;;
11535;SDS011;5824;49.336;8.652;2023-03-23T14:39:24;2.20;;;1.77;;
11535;SDS011;5824;49.336;8.652;2023-03-23T14:42:03;4.93;;;2.10;;
11535;SDS011;5824;49.336;8.652;2023-03-23T14:44:33;3.53;;;2.10;;
11535;SDS011;5824;49.336;8.652;2023-03-23T14:47:02;2.43;;;2.10;;
11535;SDS011;5824;49.336;8.652;2023-03-23T14:49:31;3.83;;;2.20;;
11535;SDS011;5824;49.336;8.652;2023-03-23T14:52:14;2.23;;;1.77;;
11535;SDS011;5824;49.336;8.652;2023-03-23T14:54:42;2.30;;;1.73;;
11535;SDS011;5824;49.336;8.652;2023-03-23T14:57:17;2.37;;;1.90;;
11535;SDS011;5824;49.336;8.652;2023-03-23T14:59:43;2.17;;;1.93;;
11535;SDS011;5824;49.336;8.652;2023-03-23T15:02:11;2.30;;;1.83;;
11535;SDS011;5824;49.336;8.652;2023-03-23T15:04:41;2.83;;;1.93;;
11535;SDS011;5824;49.336;8.652;2023-03-23T15:07:10;2.80;;;2.10;;
11535;SDS011;5824;49.336;8.652;2023-03-23T15:09:39;2.70;;;2.00;;
11535;SDS011;5824;49.336;8.652;2023-03-23T15:12:09;3.90;;;1.90;;
11535;SDS011;5824;49.336;8.652;2023-03-23T15:14:50;2.43;;;2.03;;
11535;SDS011;5824;49.336;8.652;2023-03-23T15:17:31;3.30;;;2.30;;
11535;SDS011;5824;49.336;8.652;2023-03-23T15:20:06;2.90;;;2.13;;
11535;SDS011;5824;49.336;8.652;2023-03-23T15:22:34;2.17;;;1.70;;
11535;SDS011;5824;49.336;8.652;2023-03-23T15:27:51;2.10;;;1.90;;
11535;SDS011;5824;49.336;8.652;2023-03-23T15:32:47;2.50;;;2.30;;
11535;SDS011;5824;49.336;8.652;2023-03-23T15:35:20;4.03;;;2.13;;
11535;SDS011;5824;49.336;8.652;2023-03-23T15:37:57;4.53;;;2.00;;
11535;SDS011;5824;49.336;8.652;2023-03-23T15:40:25;2.53;;;2.20;;
11535;SDS011;5824;49.336;8.652;2023-03-23T15:43:58;2.30;;;2.10;;
11535;SDS011;5824;49.336;8.652;2023-03-23T15:45:59;3.80;;;2.17;;
11535;SDS011;5824;49.336;8.652;2023-03-23T15:48:31;3.03;;;2.20;;
11535;SDS011;5824;49.336;8.652;2023-03-23T15:51:20;3.67;;;2.30;;
11535;SDS011;5824;49.336;8.652;2023-03-23T15:53:47;3.30;;;2.80;;
11535;SDS011;5824;49.336;8.652;2023-03-23T15:56:14;4.23;;;3.00;;
11535;SDS011;5824;49.336;8.652;2023-03-23T15:58:41;4.27;;;2.27;;
11535;SDS011;5824;49.336;8.652;2023-03-23T16:01:24;2.77;;;2.20;;
11535;SDS011;5824;49.336;8.652;2023-03-23T16:03:54;3.50;;;2.50;;
11535;SDS011;5824;49.336;8.652;2023-03-23T16:06:23;4.23;;;2.50;;
11535;SDS011;5824;49.336;8.652;2023-03-23T16:08:54;4.83;;;2.67;;
11535;SDS011;5824;49.336;8.652;2023-03-23T16:11:20;3.33;;;2.40;;
11535;SDS011;5824;49.336;8.652;2023-03-23T16:13:47;3.60;;;2.40;;
11535;SDS011;5824;49.336;8.652;2023-03-23T16:16:14;4.90;;;2.60;;
11535;SDS011;5824;49.336;8.652;2023-03-23T16:18:40;3.07;;;2.67;;
11535;SDS011;5824;49.336;8.652;2023-03-23T16:21:05;2.73;;;2.33;;
11535;SDS011;5824;49.336;8.652;2023-03-23T16:23:31;2.70;;;2.20;;
11535;SDS011;5824;49.336;8.652;2023-03-23T16:25:57;4.07;;;2.67;;
11535;SDS011;5824;49.336;8.652;2023-03-23T16:28:22;6.30;;;2.90;;
11535;SDS011;5824;49.336;8.652;2023-03-23T16:30:48;4.40;;;2.50;;
11535;SDS011;5824;49.336;8.652;2023-03-23T16:33:13;5.20;;;2.60;;
11535;SDS011;5824;49.336;8.652;2023-03-23T16:35:39;3.60;;;2.70;;
11535;SDS011;5824;49.336;8.652;2023-03-23T16:38:05;4.00;;;2.80;;
11535;SDS011;5824;49.336;8.652;2023-03-23T16:40:31;7.77;;;5.60;;
11535;SDS011;5824;49.336;8.652;2023-03-23T16:42:57;8.00;;;6.70;;
11535;SDS011;5824;49.336;8.652;2023-03-23T16:45:23;6.03;;;4.20;;
11535;SDS011;5824;49.336;8.652;2023-03-23T16:47:51;3.97;;;3.13;;
11535;SDS011;5824;49.336;8.652;2023-03-23T16:50:19;4.60;;;2.90;;
11535;SDS011;5824;49.336;8.652;2023-03-23T16:52:46;4.50;;;2.90;;
11535;SDS011;5824;49.336;8.652;2023-03-23T16:55:12;3.37;;;2.80;;
11535;SDS011;5824;49.336;8.652;2023-03-23T16:57:39;3.10;;;2.80;;
11535;SDS011;5824;49.336;8.652;2023-03-23T17:00:06;3.30;;;2.97;;
11535;SDS011;5824;49.336;8.652;2023-03-23T17:02:35;10.23;;;2.60;;
11535;SDS011;5824;49.336;8.652;2023-03-23T17:05:01;5.13;;;2.70;;
11535;SDS011;5824;49.336;8.652;2023-03-23T17:07:27;3.07;;;2.60;;
11535;SDS011;5824;49.336;8.652;2023-03-23T17:09:52;3.17;;;2.70;;